Ash Grove, Nebraska
Current Conditions -  °F | °C
As of 10:35 PM on Sunday 23 Nov 2014 (Local Time) from KHDE Reporting Station
Clear Clear  
Wind Chill: 24°   Ceiling: Unl
Heat Index: 33°   Visibility: 10mi
Dew Point: 19°   Wind: 14mph
Humidity: 56%   Direction: 300°WNW
Pressure: 29.69"   Gusts: 20mph
Location:  40.1734°N, 98.8989°W
Report Text: KHDE 240435Z AUTO 30012G17KT 10SM CLR 01/M07 A2969 RMK AO2 T00081070
Loading
Personal Weather Stations






























Interactive Weather Map New forecast layout! Learn more

10-Day Weather Forecast

Advertisements
Track Severe Weather on mobile